Time;durP1;ratioP1;P1;durP2;ratioP2;P2;SDS_P1;SDS_P2;PMS_P1;PMS_P2;Temp;Humidity;BMP_temperature;BMP_pressure;BME280_temperature;BME280_humidity;BME280_pressure;Samples;Min_cycle;Max_cycle;Signal;HPM_P1;HPM_P2
2023/07/06 00:02:00;;;;;;;3.40;3.10;;;17.70;99.90;;;;;;4978293;28;20450;-71
2023/07/06 00:04:27;;;;;;;3.77;3.30;;;17.70;99.90;;;;;;4974818;28;20965;-71
2023/07/06 00:06:56;;;;;;;4.27;3.50;;;17.70;99.90;;;;;;4972412;28;20541;-71
2023/07/06 00:09:23;;;;;;;4.17;3.13;;;17.60;99.90;;;;;;4974383;28;20454;-71
2023/07/06 00:11:50;;;;;;;3.93;2.80;;;17.60;99.90;;;;;;4972768;28;20476;-71
2023/07/06 00:14:17;;;;;;;3.50;2.90;;;17.60;99.90;;;;;;4975239;28;20566;-70
2023/07/06 00:16:47;;;;;;;3.23;2.93;;;17.50;99.90;;;;;;4974407;28;20533;-71
2023/07/06 00:19:18;;;;;;;3.60;3.10;;;17.70;99.90;;;;;;4973569;28;20451;-70
2023/07/06 00:21:45;;;;;;;3.20;2.90;;;17.40;99.90;;;;;;4972824;28;20471;-71
2023/07/06 00:24:15;;;;;;;3.47;2.80;;;17.50;99.90;;;;;;4970343;28;20482;-71
2023/07/06 00:26:42;;;;;;;3.93;2.87;;;17.40;99.90;;;;;;4972319;28;21202;-70
2023/07/06 00:29:10;;;;;;;3.03;2.50;;;17.40;99.90;;;;;;4973085;28;20549;-70
2023/07/06 00:31:51;;;;;;;2.97;2.67;;;17.40;99.90;;;;;;4975430;28;20955;-70
2023/07/06 00:34:19;;;;;;;4.20;2.60;;;17.40;99.90;;;;;;4968964;28;20482;-70
2023/07/06 00:36:47;;;;;;;3.93;3.00;;;17.40;99.90;;;;;;4972179;28;20962;-70
2023/07/06 00:39:15;;;;;;;2.87;2.40;;;17.40;99.90;;;;;;4970721;28;20450;-70
2023/07/06 00:41:43;;;;;;;4.83;2.80;;;17.50;99.90;;;;;;4971101;28;20492;-69
2023/07/06 00:44:52;;;;;;;2.60;2.40;;;17.50;99.90;;;;;;4974523;28;20482;-70
2023/07/06 00:47:29;;;;;;;3.20;2.40;;;17.60;99.90;;;;;;4971306;28;20461;-70
2023/07/06 00:49:58;;;;;;;3.50;2.23;;;17.70;99.90;;;;;;4970892;28;20569;-70
2023/07/06 00:52:26;;;;;;;2.80;2.10;;;17.70;99.90;;;;;;4971495;28;20469;-70
2023/07/06 00:54:54;;;;;;;3.00;2.27;;;17.70;99.90;;;;;;4976175;28;20482;-70
2023/07/06 00:57:23;;;;;;;2.30;2.10;;;17.70;99.90;;;;;;4970957;28;20457;-71
2023/07/06 00:59:51;;;;;;;3.97;2.43;;;17.80;99.90;;;;;;4970913;28;20952;-70
2023/07/06 01:02:20;;;;;;;3.60;2.43;;;17.70;99.90;;;;;;4971916;28;21013;-70
2023/07/06 01:04:47;;;;;;;2.73;2.50;;;17.70;99.90;;;;;;4971657;28;20477;-70
2023/07/06 01:07:18;;;;;;;3.07;2.17;;;17.70;99.90;;;;;;4971869;28;20546;-70
2023/07/06 01:09:46;;;;;;;2.20;2.00;;;17.70;99.90;;;;;;4972331;28;20459;-70
2023/07/06 01:12:16;;;;;;;3.97;2.57;;;17.60;99.90;;;;;;4977342;28;20466;-70
2023/07/06 01:14:45;;;;;;;3.40;2.80;;;17.60;99.90;;;;;;4977080;28;20561;-70
2023/07/06 01:17:18;;;;;;;4.13;2.70;;;17.90;99.90;;;;;;4975108;28;20947;-69
2023/07/06 01:20:17;;;;;;;4.17;2.60;;;17.50;99.90;;;;;;4975025;28;20463;-70
2023/07/06 01:23:04;;;;;;;3.77;2.50;;;17.40;99.90;;;;;;4976062;28;20461;-71
2023/07/06 01:25:48;;;;;;;3.43;2.70;;;17.40;99.90;;;;;;4973979;28;20605;-71
2023/07/06 01:28:45;;;;;;;3.47;2.70;;;17.40;99.90;;;;;;4974632;28;20471;-70
2023/07/06 01:31:29;;;;;;;4.43;2.73;;;17.20;99.90;;;;;;4980713;28;20943;-70
2023/07/06 01:34:01;;;;;;;3.30;3.00;;;17.20;99.90;;;;;;4972438;28;20545;-70
2023/07/06 01:36:34;;;;;;;3.33;2.87;;;17.10;99.90;;;;;;4976556;28;20830;-70
2023/07/06 01:39:16;;;;;;;4.30;3.20;;;17.10;99.90;;;;;;4973997;28;20989;-70
2023/07/06 01:41:45;;;;;;;4.17;3.00;;;16.80;99.90;;;;;;4973662;28;21580;-71
2023/07/06 01:44:15;;;;;;;3.13;2.83;;;16.70;99.90;;;;;;4977345;28;20485;-71
2023/07/06 01:46:48;;;;;;;3.70;3.00;;;16.60;99.90;;;;;;4974332;28;20455;-71
2023/07/06 01:49:15;;;;;;;2.90;2.70;;;16.50;99.90;;;;;;4974724;28;20878;-71
2023/07/06 01:51:56;;;;;;;3.10;2.80;;;16.40;99.90;;;;;;4974714;28;20492;-70
2023/07/06 01:54:30;;;;;;;3.37;2.77;;;16.40;99.90;;;;;;4976787;28;20561;-71
2023/07/06 01:57:03;;;;;;;3.23;2.83;;;16.30;99.90;;;;;;4972755;28;20588;-70
2023/07/06 01:59:35;;;;;;;3.23;2.60;;;16.30;99.90;;;;;;4974980;28;20464;-71
2023/07/06 02:02:07;;;;;;;3.10;2.80;;;16.20;99.90;;;;;;4971434;28;20461;-70
2023/07/06 02:04:37;;;;;;;6.03;3.20;;;16.10;99.90;;;;;;4975106;28;20486;-70
2023/07/06 02:07:07;;;;;;;5.13;3.00;;;16.10;99.90;;;;;;4974809;28;21550;-70
2023/07/06 02:09:43;;;;;;;4.10;3.20;;;16.10;99.90;;;;;;4974371;28;20474;-70
2023/07/06 02:12:12;;;;;;;5.60;3.13;;;16.00;99.90;;;;;;4975520;28;21006;-70
2023/07/06 02:14:40;;;;;;;5.10;3.23;;;16.00;99.90;;;;;;4975009;28;20690;-70
2023/07/06 02:17:09;;;;;;;3.60;3.30;;;16.20;99.90;;;;;;4972684;28;20581;-70
2023/07/06 02:19:36;;;;;;;3.80;3.50;;;15.90;99.90;;;;;;4972280;28;20464;-69
2023/07/06 02:22:04;;;;;;;5.03;3.40;;;15.90;99.90;;;;;;4972700;28;20982;-70
2023/07/06 02:24:31;;;;;;;3.10;2.80;;;15.80;99.90;;;;;;4975407;28;20482;-70
2023/07/06 02:26:58;;;;;;;5.00;3.00;;;15.80;99.90;;;;;;4974083;28;22101;-70
2023/07/06 02:29:26;;;;;;;4.30;3.20;;;15.70;99.90;;;;;;4975910;28;20465;-71
2023/07/06 02:31:53;;;;;;;3.37;3.07;;;15.70;99.90;;;;;;4974802;28;20479;-69
2023/07/06 02:34:24;;;;;;;3.30;3.10;;;15.90;99.90;;;;;;4975171;28;20567;-69
2023/07/06 02:36:52;;;;;;;5.27;3.30;;;15.60;99.90;;;;;;4974011;28;20979;-71
2023/07/06 02:39:20;;;;;;;4.13;3.47;;;15.50;99.90;;;;;;4973212;28;20521;-69
2023/07/06 02:41:47;;;;;;;3.93;3.23;;;15.40;99.90;;;;;;4974928;28;20458;-70
2023/07/06 02:44:14;;;;;;;3.60;3.20;;;15.40;99.90;;;;;;4973678;28;20846;-70
2023/07/06 02:46:41;;;;;;;3.83;3.53;;;15.40;99.90;;;;;;4972147;28;20458;-70
2023/07/06 02:49:08;;;;;;;3.40;3.07;;;15.40;99.90;;;;;;4974541;28;20457;-71
2023/07/06 02:51:37;;;;;;;3.67;3.37;;;15.40;99.90;;;;;;4976376;28;20459;-69
2023/07/06 02:54:04;;;;;;;4.10;3.77;;;15.40;99.90;;;;;;4975314;28;20475;-71
2023/07/06 02:56:32;;;;;;;3.97;3.17;;;15.40;99.90;;;;;;4974380;28;20493;-70
2023/07/06 02:58:59;;;;;;;4.83;3.70;;;15.40;99.90;;;;;;4975366;28;20454;-70
2023/07/06 03:01:26;;;;;;;4.30;3.90;;;15.50;99.90;;;;;;4971054;28;20951;-70
2023/07/06 03:03:53;;;;;;;5.47;3.80;;;15.50;99.90;;;;;;4974864;28;20522;-70
2023/07/06 03:06:20;;;;;;;4.00;3.50;;;15.50;99.90;;;;;;4973742;28;20500;-69
2023/07/06 03:08:49;;;;;;;4.87;3.60;;;15.50;99.90;;;;;;4971872;28;20473;-70
2023/07/06 03:11:17;;;;;;;5.53;3.10;;;15.40;99.90;;;;;;4973803;28;20974;-71
2023/07/06 03:13:44;;;;;;;5.40;3.23;;;15.30;99.90;;;;;;4978434;28;20625;-71
2023/07/06 03:16:11;;;;;;;3.40;3.10;;;15.30;99.90;;;;;;4973332;28;20486;-70
2023/07/06 03:18:39;;;;;;;5.20;3.87;;;15.30;99.90;;;;;;4974042;28;20485;-70
2023/07/06 03:21:06;;;;;;;4.10;3.13;;;15.20;99.90;;;;;;4975146;28;20461;-69
2023/07/06 03:23:33;;;;;;;4.03;3.50;;;15.20;99.90;;;;;;4972329;28;20462;-69
2023/07/06 03:26:02;;;;;;;3.30;3.00;;;15.10;99.90;;;;;;4971130;28;20455;-70
2023/07/06 03:28:29;;;;;;;3.77;3.43;;;15.10;99.90;;;;;;4972587;28;20971;-69
2023/07/06 03:30:57;;;;;;;3.67;3.30;;;15.10;99.90;;;;;;4977076;28;20982;-70
2023/07/06 03:33:25;;;;;;;4.00;3.60;;;15.00;99.90;;;;;;4973891;28;20551;-71
2023/07/06 03:35:54;;;;;;;3.70;3.23;;;15.00;99.90;;;;;;4967998;28;20525;-72
2023/07/06 03:38:21;;;;;;;4.40;3.80;;;15.00;99.90;;;;;;4974332;28;20526;-71
2023/07/06 03:40:51;;;;;;;3.73;3.43;;;15.00;99.90;;;;;;4972689;28;20549;-72
2023/07/06 03:43:20;;;;;;;3.70;3.40;;;14.90;99.90;;;;;;4972761;28;20490;-72
2023/07/06 03:45:49;;;;;;;5.03;3.27;;;14.90;99.90;;;;;;4973745;28;20482;-71
2023/07/06 03:48:16;;;;;;;3.30;2.97;;;14.90;99.90;;;;;;4978494;28;20458;-71
2023/07/06 03:50:44;;;;;;;5.87;3.30;;;14.80;99.90;;;;;;4970413;28;20551;-73
2023/07/06 03:53:12;;;;;;;4.40;3.57;;;14.80;99.90;;;;;;4977332;28;20489;-72
2023/07/06 03:55:40;;;;;;;4.93;3.30;;;14.70;99.90;;;;;;4973759;28;20541;-71
2023/07/06 03:58:08;;;;;;;3.90;3.60;;;14.90;99.90;;;;;;4971312;28;20493;-71
2023/07/06 04:00:36;;;;;;;4.70;4.13;;;14.60;99.90;;;;;;4971192;28;20451;-73
2023/07/06 04:03:04;;;;;;;3.87;3.50;;;14.50;99.90;;;;;;4972838;28;20461;-70
2023/07/06 04:05:36;;;;;;;4.80;4.40;;;14.40;99.90;;;;;;4973199;28;20520;-70
2023/07/06 04:08:05;;;;;;;5.33;3.50;;;14.40;99.90;;;;;;4971461;28;20967;-70
2023/07/06 04:10:33;;;;;;;4.63;3.80;;;14.30;99.90;;;;;;4972203;28;20563;-70
2023/07/06 04:13:01;;;;;;;4.20;3.80;;;14.30;99.90;;;;;;4971912;28;20464;-69
2023/07/06 04:15:28;;;;;;;4.10;3.70;;;14.30;99.90;;;;;;4974052;28;20575;-71
2023/07/06 04:17:56;;;;;;;3.43;3.13;;;14.30;99.90;;;;;;4974087;28;20581;-67
2023/07/06 04:20:25;;;;;;;3.97;3.30;;;14.30;99.90;;;;;;4971615;28;20459;-69
2023/07/06 04:22:54;;;;;;;6.13;3.30;;;14.30;99.90;;;;;;4971692;28;20467;-69
2023/07/06 04:25:22;;;;;;;4.90;3.97;;;14.30;99.90;;;;;;4970722;28;20636;-69
2023/07/06 04:27:54;;;;;;;3.97;3.57;;;14.30;99.90;;;;;;4973548;28;20459;-68
2023/07/06 04:30:21;;;;;;;4.27;3.90;;;14.30;99.90;;;;;;4971677;28;20553;-67
2023/07/06 04:32:49;;;;;;;5.90;3.90;;;14.30;99.90;;;;;;4968627;28;20862;-71
2023/07/06 04:35:21;;;;;;;4.67;3.37;;;14.30;99.90;;;;;;4962636;28;20488;-78
2023/07/06 04:37:50;;;;;;;4.07;3.50;;;14.30;99.90;;;;;;4965515;28;20489;-70
2023/07/06 04:40:18;;;;;;;4.50;3.80;;;14.30;99.90;;;;;;4971897;28;20517;-70
2023/07/06 04:42:48;;;;;;;5.60;3.83;;;14.30;99.90;;;;;;4978510;28;20493;-69
2023/07/06 04:45:17;;;;;;;4.93;3.70;;;14.40;99.90;;;;;;4972451;28;20482;-69
2023/07/06 04:47:45;;;;;;;5.73;4.20;;;14.40;99.90;;;;;;4970929;28;20504;-69
2023/07/06 04:50:15;;;;;;;4.27;3.77;;;14.40;99.90;;;;;;4974934;28;20466;-70
2023/07/06 04:52:44;;;;;;;5.13;3.80;;;14.50;99.90;;;;;;4974419;28;20458;-70
2023/07/06 04:55:11;;;;;;;3.80;3.50;;;14.50;99.90;;;;;;4968116;28;20521;-69
2023/07/06 04:57:39;;;;;;;4.50;4.10;;;14.50;99.90;;;;;;4969825;28;20471;-70
2023/07/06 05:00:12;;;;;;;4.20;3.80;;;14.60;99.90;;;;;;4973560;28;20467;-70
2023/07/06 05:02:42;;;;;;;4.03;3.63;;;14.70;99.90;;;;;;4978060;28;20445;-66
2023/07/06 05:05:11;;;;;;;4.00;3.67;;;14.80;99.90;;;;;;4969760;28;20543;-64
2023/07/06 05:07:38;;;;;;;4.80;4.00;;;14.80;99.90;;;;;;4968017;28;20842;-69
2023/07/06 05:10:08;;;;;;;4.60;3.70;;;14.90;99.90;;;;;;4969920;28;20592;-70
2023/07/06 05:12:35;;;;;;;4.20;3.67;;;14.90;99.90;;;;;;4973448;28;20458;-69
2023/07/06 05:15:03;;;;;;;5.40;3.53;;;15.00;99.90;;;;;;4975040;28;20481;-69
2023/07/06 05:17:31;;;;;;;4.00;3.50;;;15.00;99.90;;;;;;4977540;28;20523;-69
2023/07/06 05:19:59;;;;;;;4.13;3.60;;;15.00;99.90;;;;;;4971407;28;21023;-70
2023/07/06 05:22:26;;;;;;;4.33;3.50;;;15.10;99.90;;;;;;4974700;28;20504;-70
2023/07/06 05:24:53;;;;;;;3.93;3.53;;;15.10;99.90;;;;;;4973855;28;21014;-70
2023/07/06 05:27:24;;;;;;;4.27;3.47;;;15.20;99.90;;;;;;4976159;28;20470;-69
2023/07/06 05:29:51;;;;;;;4.13;3.73;;;15.30;99.90;;;;;;4979745;28;20565;-70
2023/07/06 05:32:18;;;;;;;4.80;3.90;;;15.50;99.90;;;;;;4978065;28;21167;-70
2023/07/06 05:34:46;;;;;;;3.70;3.10;;;15.40;99.90;;;;;;4974818;28;20935;-70
2023/07/06 05:37:13;;;;;;;4.00;3.70;;;15.50;99.90;;;;;;4977081;28;20482;-70
2023/07/06 05:39:40;;;;;;;4.20;3.40;;;15.60;99.90;;;;;;4979075;28;20451;-69
2023/07/06 05:42:07;;;;;;;4.33;3.47;;;15.60;99.90;;;;;;4970014;28;20467;-69
2023/07/06 05:44:35;;;;;;;4.03;3.37;;;15.70;99.90;;;;;;4970713;28;20945;-70
2023/07/06 05:47:02;;;;;;;4.00;3.70;;;15.80;99.90;;;;;;4972063;28;20474;-71
2023/07/06 05:49:30;;;;;;;3.03;2.70;;;15.90;99.90;;;;;;4968377;28;20538;-70
2023/07/06 05:51:57;;;;;;;4.40;3.70;;;16.00;99.90;;;;;;4971209;28;20518;-70
2023/07/06 05:54:23;;;;;;;3.87;3.37;;;16.00;99.90;;;;;;4972016;28;20561;-70
2023/07/06 05:56:51;;;;;;;3.63;3.33;;;16.10;99.90;;;;;;4968146;28;20482;-69
2023/07/06 05:59:19;;;;;;;3.97;3.33;;;16.20;99.90;;;;;;4976081;28;20517;-70
2023/07/06 06:01:48;;;;;;;3.50;3.20;;;16.40;99.90;;;;;;4979278;28;20536;-70
2023/07/06 06:04:15;;;;;;;4.07;3.57;;;16.70;99.90;;;;;;4975605;28;20556;-70
2023/07/06 06:06:47;;;;;;;3.87;3.37;;;16.60;99.90;;;;;;4975416;28;20466;-70
2023/07/06 06:09:14;;;;;;;4.60;3.20;;;16.80;99.90;;;;;;4971482;28;20460;-70
2023/07/06 06:11:42;;;;;;;4.73;3.70;;;17.00;99.90;;;;;;4976698;28;20474;-70
2023/07/06 06:14:10;;;;;;;3.87;3.47;;;17.00;99.90;;;;;;4977332;28;20486;-70
2023/07/06 06:16:39;;;;;;;5.30;3.07;;;17.10;99.90;;;;;;4977510;28;20479;-69
2023/07/06 06:19:08;;;;;;;4.27;3.13;;;17.20;99.90;;;;;;4976636;28;20473;-69
2023/07/06 06:21:36;;;;;;;3.20;2.90;;;17.30;99.90;;;;;;4978911;28;20450;-71
2023/07/06 06:24:08;;;;;;;3.47;2.90;;;17.50;99.90;;;;;;4977428;28;21266;-70
2023/07/06 06:26:35;;;;;;;3.47;2.70;;;17.50;99.90;;;;;;4974393;28;20977;-70
2023/07/06 06:29:02;;;;;;;6.33;3.40;;;17.60;99.90;;;;;;4976261;28;21283;-68
2023/07/06 06:31:30;;;;;;;4.10;3.07;;;17.60;99.90;;;;;;4976954;28;20541;-68
2023/07/06 06:33:57;;;;;;;4.50;3.40;;;17.60;99.90;;;;;;4973148;28;20484;-71
2023/07/06 06:36:26;;;;;;;4.33;3.13;;;17.60;99.90;;;;;;4972101;28;21161;-70
2023/07/06 06:38:54;;;;;;;3.30;3.00;;;17.70;99.90;;;;;;4977924;28;20839;-69
2023/07/06 06:41:21;;;;;;;3.30;2.83;;;17.80;99.90;;;;;;4979450;28;20538;-69
2023/07/06 06:43:49;;;;;;;4.07;3.07;;;17.90;99.90;;;;;;4972973;28;20478;-69
2023/07/06 06:46:16;;;;;;;3.43;2.70;;;18.00;99.90;;;;;;4974544;28;20553;-69
2023/07/06 06:48:43;;;;;;;2.87;2.53;;;18.10;99.90;;;;;;4974299;28;20918;-69
2023/07/06 06:51:12;;;;;;;4.60;3.40;;;18.20;99.90;;;;;;4972789;28;20549;-70
2023/07/06 06:53:40;;;;;;;5.03;3.07;;;18.30;99.90;;;;;;4976101;28;21079;-70
2023/07/06 06:56:09;;;;;;;3.17;2.83;;;18.50;99.90;;;;;;4976349;28;20470;-70
2023/07/06 06:58:37;;;;;;;3.80;3.47;;;18.60;99.90;;;;;;4978720;28;20506;-70
2023/07/06 07:01:05;;;;;;;3.23;2.50;;;18.80;99.90;;;;;;4972837;28;20454;-70
2023/07/06 07:03:34;;;;;;;2.40;2.20;;;19.00;99.90;;;;;;4972778;28;20563;-70
2023/07/06 07:06:02;;;;;;;5.67;5.10;;;19.10;99.90;;;;;;4973950;28;20465;-69
2023/07/06 07:08:30;;;;;;;4.27;3.30;;;19.20;99.90;;;;;;4976728;28;20484;-70
2023/07/06 07:11:00;;;;;;;2.60;2.03;;;19.40;99.90;;;;;;4969613;28;21502;-70
2023/07/06 07:13:30;;;;;;;3.80;2.97;;;19.50;99.90;;;;;;4974633;28;20977;-69
2023/07/06 07:15:57;;;;;;;4.07;3.07;;;19.70;99.90;;;;;;4974046;28;20509;-65
2023/07/06 07:18:24;;;;;;;2.93;2.63;;;19.80;99.90;;;;;;4975958;28;20697;-65
2023/07/06 07:20:52;;;;;;;3.73;2.90;;;19.80;99.90;;;;;;4972679;28;20503;-65
2023/07/06 07:23:22;;;;;;;3.20;2.90;;;19.90;99.90;;;;;;4973095;28;20471;-70
2023/07/06 07:25:49;;;;;;;3.30;2.60;;;19.90;99.90;;;;;;4977637;28;20456;-71
2023/07/06 07:28:18;;;;;;;3.10;2.80;;;20.00;99.90;;;;;;4972493;28;20566;-71
2023/07/06 07:30:55;;;;;;;3.90;2.90;;;20.10;99.90;;;;;;4971754;28;20918;-70
2023/07/06 07:33:22;;;;;;;2.43;2.20;;;20.20;99.90;;;;;;4972244;28;20826;-70
2023/07/06 07:35:50;;;;;;;3.20;2.40;;;20.40;99.90;;;;;;4972017;28;20454;-70
2023/07/06 07:38:18;;;;;;;3.33;2.30;;;20.60;99.90;;;;;;4976874;28;20923;-70
2023/07/06 07:40:55;;;;;;;2.80;2.37;;;20.80;99.90;;;;;;4972362;28;21031;-70
2023/07/06 07:43:25;;;;;;;3.63;2.43;;;21.00;99.90;;;;;;4977068;28;20506;-70
2023/07/06 07:45:55;;;;;;;3.70;2.53;;;21.30;99.90;;;;;;4972913;28;20521;-71
2023/07/06 07:48:23;;;;;;;3.23;2.30;;;21.50;99.90;;;;;;4977821;28;20536;-71
2023/07/06 07:50:53;;;;;;;3.73;2.50;;;21.80;99.90;;;;;;4972945;28;20446;-69
2023/07/06 07:53:22;;;;;;;2.80;2.60;;;21.80;99.90;;;;;;4971793;28;20509;-70
2023/07/06 07:55:49;;;;;;;2.43;1.90;;;21.90;99.90;;;;;;4972814;28;20454;-70
2023/07/06 07:58:17;;;;;;;2.57;2.37;;;21.80;99.90;;;;;;4973604;28;20475;-70
2023/07/06 08:00:49;;;;;;;2.83;2.63;;;21.70;99.90;;;;;;4975241;28;20457;-70
2023/07/06 08:03:16;;;;;;;3.30;2.50;;;21.70;99.90;;;;;;4982445;28;20557;-70
2023/07/06 08:05:43;;;;;;;3.30;2.80;;;21.80;99.90;;;;;;4975732;28;20549;-70
2023/07/06 08:08:11;;;;;;;3.83;2.50;;;21.90;99.90;;;;;;4973801;28;20459;-70
2023/07/06 08:10:40;;;;;;;4.53;3.00;;;21.80;99.90;;;;;;4974344;28;20455;-70
2023/07/06 08:13:09;;;;;;;3.60;2.40;;;21.90;99.90;;;;;;4971628;28;20473;-70
2023/07/06 08:15:37;;;;;;;2.47;2.20;;;22.00;99.00;;;;;;4974017;28;20451;-69
2023/07/06 08:18:06;;;;;;;2.90;2.20;;;22.10;99.90;;;;;;4971334;28;20482;-70
2023/07/06 08:20:33;;;;;;;2.80;1.93;;;22.40;99.50;;;;;;4972866;28;20460;-70
2023/07/06 08:23:01;;;;;;;3.63;2.00;;;22.50;99.00;;;;;;4972864;28;20475;-70
2023/07/06 08:25:29;;;;;;;2.90;1.80;;;22.60;98.50;;;;;;4979524;28;20470;-70
2023/07/06 08:27:56;;;;;;;3.23;2.30;;;22.50;97.40;;;;;;4970539;28;20974;-71
2023/07/06 08:30:23;;;;;;;3.20;1.93;;;22.50;97.10;;;;;;4970781;28;21350;-70
2023/07/06 08:32:51;;;;;;;2.83;2.40;;;22.70;97.00;;;;;;4972281;28;20481;-71
2023/07/06 08:35:20;;;;;;;2.60;2.07;;;22.90;95.70;;;;;;4967842;28;21275;-70
2023/07/06 08:37:47;;;;;;;1.80;1.70;;;22.80;93.70;;;;;;4969552;28;20509;-70
2023/07/06 08:40:17;;;;;;;2.63;2.20;;;22.70;94.80;;;;;;4972388;28;20893;-70
2023/07/06 08:42:46;;;;;;;5.20;1.97;;;22.90;94.10;;;;;;4969022;28;20446;-70
2023/07/06 08:45:17;;;;;;;3.43;1.97;;;23.10;95.80;;;;;;4974196;28;20482;-70
2023/07/06 08:47:46;;;;;;;2.50;2.17;;;23.40;95.30;;;;;;4977632;28;20455;-70
2023/07/06 08:50:15;;;;;;;5.43;2.10;;;23.60;95.20;;;;;;4976937;28;20447;-71
2023/07/06 08:52:44;;;;;;;5.07;1.90;;;23.80;94.80;;;;;;4969451;28;20467;-70
2023/07/06 08:55:13;;;;;;;2.57;2.20;;;24.10;94.90;;;;;;4971654;28;20551;-71
2023/07/06 08:57:41;;;;;;;2.60;2.23;;;24.40;95.10;;;;;;4976563;28;20482;-70
2023/07/06 09:00:21;;;;;;;3.87;2.80;;;24.60;94.20;;;;;;4972543;28;20454;-70
2023/07/06 09:02:49;;;;;;;2.23;2.03;;;24.80;93.80;;;;;;4971721;28;21000;-70
2023/07/06 09:05:17;;;;;;;2.70;2.27;;;25.00;93.90;;;;;;4974004;28;20473;-70
2023/07/06 09:07:46;;;;;;;7.90;2.40;;;24.90;92.40;;;;;;4972571;28;21276;-70
2023/07/06 09:10:16;;;;;;;2.30;2.10;;;24.90;92.60;;;;;;4974614;28;20558;-71
2023/07/06 09:12:44;;;;;;;3.07;2.43;;;24.70;92.40;;;;;;4977056;28;20466;-71
2023/07/06 09:15:16;;;;;;;3.70;2.60;;;24.80;92.50;;;;;;4972285;28;21182;-71
2023/07/06 09:17:48;;;;;;;4.67;2.43;;;24.70;92.30;;;;;;4970589;28;20543;-71
2023/07/06 09:20:19;;;;;;;2.93;2.63;;;24.80;93.30;;;;;;4976402;28;20454;-71
2023/07/06 09:22:48;;;;;;;3.47;2.30;;;25.10;92.50;;;;;;4973446;28;20520;-70
2023/07/06 09:25:17;;;;;;;2.80;2.50;;;25.10;92.10;;;;;;4972554;28;20476;-71
2023/07/06 09:27:48;;;;;;;4.03;2.60;;;25.30;92.20;;;;;;4975508;28;20996;-71
2023/07/06 09:30:29;;;;;;;3.10;2.33;;;25.60;91.50;;;;;;4970122;28;20455;-71
2023/07/06 09:33:06;;;;;;;3.00;2.50;;;25.90;90.30;;;;;;4973371;28;20513;-71
2023/07/06 09:35:36;;;;;;;3.17;2.60;;;25.90;88.80;;;;;;4976841;28;20480;-71
2023/07/06 09:38:06;;;;;;;2.50;2.23;;;25.80;88.30;;;;;;4979275;28;20487;-71
2023/07/06 09:40:34;;;;;;;3.20;2.17;;;25.60;86.50;;;;;;4976714;28;20822;-71
2023/07/06 09:43:00;;;;;;;3.20;2.00;;;25.50;86.70;;;;;;4978154;28;20457;-69
2023/07/06 09:45:30;;;;;;;2.40;2.20;;;25.20;87.00;;;;;;4975557;28;20871;-69
2023/07/06 09:48:01;;;;;;;3.60;1.97;;;24.80;86.70;;;;;;4976980;28;20470;-69
2023/07/06 09:50:36;;;;;;;2.63;2.10;;;24.70;87.70;;;;;;4978026;28;20979;-68
2023/07/06 09:53:07;;;;;;;3.70;2.00;;;24.40;87.50;;;;;;4975611;28;20484;-68
2023/07/06 09:55:34;;;;;;;3.10;2.50;;;24.20;87.70;;;;;;4978908;28;20476;-69
2023/07/06 09:58:02;;;;;;;3.00;2.13;;;24.40;87.70;;;;;;4972101;28;20493;-70
2023/07/06 10:00:34;;;;;;;2.60;2.20;;;24.60;85.30;;;;;;4976836;28;20505;-69
2023/07/06 10:03:13;;;;;;;2.60;2.37;;;25.00;87.20;;;;;;4974049;28;20455;-69
2023/07/06 10:05:51;;;;;;;2.30;2.10;;;25.40;87.30;;;;;;4972101;28;20500;-69
2023/07/06 10:08:24;;;;;;;1.90;1.80;;;25.80;83.70;;;;;;4977791;28;20454;-70
2023/07/06 10:11:09;;;;;;;4.67;2.50;;;26.50;82.90;;;;;;4974968;28;20482;-70
2023/07/06 10:13:49;;;;;;;4.53;2.63;;;26.90;80.10;;;;;;4972475;28;20479;-70
2023/07/06 10:16:24;;;;;;;4.03;2.93;;;26.70;78.00;;;;;;4971275;28;20468;-79
2023/07/06 10:18:56;;;;;;;2.70;2.50;;;26.90;78.90;;;;;;4977178;28;20581;-80
2023/07/06 10:21:28;;;;;;;3.70;2.60;;;27.20;77.40;;;;;;4979605;28;20489;-81
2023/07/06 10:24:05;;;;;;;8.20;2.33;;;27.90;75.20;;;;;;4978488;28;20970;-80
2023/07/06 10:26:35;;;;;;;2.70;2.37;;;28.30;73.60;;;;;;4973667;28;20463;-79
2023/07/06 10:29:05;;;;;;;2.50;2.20;;;28.30;72.80;;;;;;4975973;28;20461;-80
2023/07/06 10:31:38;;;;;;;2.90;2.67;;;28.80;71.90;;;;;;4976323;28;20496;-79
2023/07/06 10:34:15;;;;;;;2.50;2.30;;;29.60;70.60;;;;;;4977765;28;20539;-80
2023/07/06 10:36:43;;;;;;;2.83;2.40;;;29.80;67.10;;;;;;4979870;28;20471;-79
2023/07/06 10:39:53;;;;;;;2.70;2.40;;;29.10;67.30;;;;;;4976264;28;20502;-80
2023/07/06 10:42:22;;;;;;;3.40;2.20;;;29.20;68.50;;;;;;4977017;28;20463;-79
2023/07/06 10:44:51;;;;;;;3.33;1.93;;;29.10;66.50;;;;;;4975673;28;20520;-79
2023/07/06 10:47:35;;;;;;;1.90;1.80;;;29.40;68.10;;;;;;4975859;28;20505;-80
2023/07/06 10:50:13;;;;;;;3.73;2.73;;;29.80;64.80;;;;;;4973517;28;20468;-80
2023/07/06 10:52:42;;;;;;;2.67;2.33;;;30.00;66.20;;;;;;4980658;28;20453;-79
2023/07/06 10:55:22;;;;;;;4.50;2.57;;;29.10;62.80;;;;;;4972339;28;20465;-78
2023/07/06 10:57:51;;;;;;;2.90;2.40;;;28.50;66.80;;;;;;4973751;28;20450;-78
2023/07/06 11:00:22;;;;;;;2.57;2.37;;;28.10;67.50;;;;;;4972804;28;20541;-77
2023/07/06 11:02:55;;;;;;;3.20;2.37;;;27.40;68.90;;;;;;4973661;28;20565;-78
2023/07/06 11:05:27;;;;;;;2.57;2.30;;;27.00;69.30;;;;;;4976573;28;20462;-78
2023/07/06 11:07:55;;;;;;;3.00;2.33;;;26.60;69.20;;;;;;4975561;28;20462;-79
2023/07/06 11:10:31;;;;;;;5.43;2.60;;;27.10;69.50;;;;;;4971447;28;20477;-78
2023/07/06 11:13:16;;;;;;;2.03;1.93;;;27.20;67.60;;;;;;4972813;28;20863;-79
2023/07/06 11:15:59;;;;;;;3.10;2.47;;;27.30;68.50;;;;;;4972663;28;20466;-80
2023/07/06 11:18:35;;;;;;;3.33;2.77;;;27.10;66.30;;;;;;4974957;28;20475;-79
2023/07/06 11:21:11;;;;;;;2.80;2.33;;;26.70;66.30;;;;;;4975493;28;21118;-80
2023/07/06 11:23:45;;;;;;;3.20;2.70;;;26.30;70.50;;;;;;4974085;28;20983;-79
2023/07/06 11:26:34;;;;;;;4.30;2.80;;;26.10;70.40;;;;;;4977971;28;20458;-79
2023/07/06 11:29:02;;;;;;;4.23;2.20;;;26.20;69.40;;;;;;4972476;28;20459;-78
2023/07/06 11:31:39;;;;;;;2.87;2.40;;;26.10;70.90;;;;;;4970057;28;20462;-79
2023/07/06 11:34:17;;;;;;;2.40;2.20;;;26.20;68.00;;;;;;4973829;28;20585;-79
2023/07/06 11:36:57;;;;;;;4.33;2.47;;;26.40;71.30;;;;;;4975303;28;20505;-79
2023/07/06 11:39:31;;;;;;;4.27;2.80;;;27.50;69.90;;;;;;4972578;28;20493;-80
2023/07/06 11:42:02;;;;;;;2.97;2.50;;;28.50;66.50;;;;;;4976471;28;20533;-79
2023/07/06 11:44:47;;;;;;;2.47;2.10;;;29.60;66.40;;;;;;4974787;28;20853;-80
2023/07/06 11:47:34;;;;;;;3.83;2.33;;;31.00;62.00;;;;;;4967544;28;20542;-80
2023/07/06 11:50:03;;;;;;;3.23;2.20;;;31.40;58.60;;;;;;4967868;28;20466;-80
2023/07/06 11:52:34;;;;;;;2.60;2.40;;;31.20;58.60;;;;;;4963968;28;21110;-80
2023/07/06 11:55:14;;;;;;;2.50;2.30;;;31.10;58.80;;;;;;4968892;28;20935;-79
2023/07/06 11:57:54;;;;;;;4.53;2.50;;;30.70;59.50;;;;;;4970724;28;20469;-80
2023/07/06 12:00:48;;;;;;;2.53;2.33;;;30.60;60.90;;;;;;4967328;28;20501;-80
2023/07/06 12:03:17;;;;;;;2.80;2.50;;;30.90;59.90;;;;;;4969531;28;20572;-80
2023/07/06 12:05:47;;;;;;;2.60;2.37;;;31.20;58.30;;;;;;4974140;28;20460;-79
2023/07/06 12:08:19;;;;;;;3.03;2.60;;;31.10;58.00;;;;;;4974909;28;20462;-80
2023/07/06 12:10:50;;;;;;;2.90;2.40;;;31.60;60.00;;;;;;4973449;28;20574;-79
2023/07/06 12:13:22;;;;;;;3.50;2.60;;;32.30;58.50;;;;;;4986989;28;20481;-79
2023/07/06 12:15:51;;;;;;;2.60;2.20;;;32.00;57.20;;;;;;4980025;28;20864;-80
2023/07/06 12:18:20;;;;;;;3.57;2.50;;;32.80;56.40;;;;;;4978808;28;20460;-78
2023/07/06 12:20:52;;;;;;;4.80;2.70;;;32.30;56.20;;;;;;4976669;28;20459;-79
2023/07/06 12:23:19;;;;;;;2.73;2.13;;;31.70;57.30;;;;;;4976077;28;20485;-79
2023/07/06 12:25:47;;;;;;;2.60;2.40;;;31.80;57.50;;;;;;4977001;28;20486;-79
2023/07/06 12:28:15;;;;;;;3.53;2.57;;;31.70;57.20;;;;;;4972508;28;20458;-77
2023/07/06 12:30:45;;;;;;;2.97;2.63;;;31.50;55.90;;;;;;4976044;28;20485;-78
2023/07/06 12:33:16;;;;;;;2.60;2.40;;;31.20;57.10;;;;;;4975268;28;20577;-78
2023/07/06 12:35:44;;;;;;;2.47;2.27;;;31.20;56.20;;;;;;4974496;28;20546;-79
2023/07/06 12:38:15;;;;;;;2.83;2.40;;;31.10;55.70;;;;;;4975746;28;20477;-78
2023/07/06 12:40:43;;;;;;;2.90;2.43;;;31.00;55.60;;;;;;4972960;28;21000;-78
2023/07/06 12:43:22;;;;;;;3.13;2.57;;;31.00;55.70;;;;;;4973026;28;20482;-78
2023/07/06 12:45:52;;;;;;;2.93;2.10;;;31.80;55.50;;;;;;4971999;28;20447;-78
2023/07/06 12:48:23;;;;;;;2.80;2.60;;;33.10;55.00;;;;;;4972795;28;20439;-78
2023/07/06 12:50:52;;;;;;;4.10;2.40;;;31.60;52.60;;;;;;4972294;28;20459;-78
2023/07/06 12:53:26;;;;;;;2.97;2.77;;;32.20;54.80;;;;;;4972245;28;20467;-78
2023/07/06 12:56:00;;;;;;;5.93;2.80;;;32.50;53.80;;;;;;4972876;28;20488;-77
2023/07/06 12:58:32;;;;;;;2.60;2.40;;;31.30;52.80;;;;;;4972968;28;20458;-78
2023/07/06 13:01:17;;;;;;;2.67;2.47;;;32.10;55.50;;;;;;4970060;28;20556;-78
2023/07/06 13:03:47;;;;;;;3.00;2.40;;;32.40;54.30;;;;;;4972397;28;20485;-78
2023/07/06 13:06:15;;;;;;;2.67;2.47;;;33.70;53.20;;;;;;4969600;28;20459;-79